createdAt,value
2018-02-24T00:00:22.437Z,0.97
2018-02-24T00:05:09.752Z,0.96
2018-02-24T00:06:09.760Z,0.84
2018-02-24T00:09:44.410Z,0.61
2018-02-24T00:10:46.020Z,0.58
2018-02-24T00:11:44.888Z,0.58
2018-02-24T00:12:45.011Z,1.04
2018-02-24T00:13:45.047Z,1.04
2018-02-24T00:14:44.456Z,0.80
2018-02-24T00:17:49.055Z,0.42
2018-02-24T00:18:33.493Z,0.33
2018-02-24T00:19:34.161Z,0.41
2018-02-24T00:20:33.532Z,0.42
2018-02-24T00:21:33.542Z,0.44
2018-02-24T00:22:33.547Z,0.58
2018-02-24T00:23:48.726Z,0.58
2018-02-24T00:24:33.569Z,0.60
2018-02-24T00:25:33.602Z,0.60
2018-02-24T00:26:33.594Z,0.65
2018-02-24T00:27:33.612Z,0.51
2018-02-24T00:28:33.649Z,0.61
2018-02-24T00:29:33.630Z,0.51
2018-02-24T00:30:33.641Z,0.55
2018-02-24T00:31:33.654Z,0.51
2018-02-24T00:32:33.661Z,0.44
2018-02-24T00:33:33.709Z,0.39
2018-02-24T00:34:33.689Z,0.31
2018-02-24T00:35:33.705Z,0.47
2018-02-24T00:36:33.711Z,0.35
2018-02-24T00:37:33.727Z,0.38
2018-02-24T00:38:33.762Z,0.50
2018-02-24T00:39:33.749Z,0.39
2018-02-24T00:40:33.760Z,0.41
2018-02-24T00:41:33.771Z,0.46
2018-02-24T00:42:33.788Z,0.39
2018-02-24T00:43:33.806Z,0.47
2018-02-24T00:44:33.838Z,0.42
2018-02-24T00:45:33.849Z,0.44
2018-02-24T00:46:33.840Z,0.42
2018-02-24T00:47:33.848Z,0.46
2018-02-24T00:48:33.860Z,0.55
2018-02-24T00:49:33.873Z,0.69
2018-02-24T00:50:33.919Z,0.57
2018-02-24T00:51:33.901Z,0.42
2018-02-24T00:52:33.909Z,0.57
2018-02-24T00:53:33.923Z,0.47
2018-02-24T00:54:34.721Z,0.55
2018-02-24T00:55:53.235Z,0.66
2018-02-24T00:56:33.965Z,0.60
2018-02-24T00:57:33.973Z,0.68
2018-02-24T00:58:33.987Z,0.49
2018-02-24T00:59:34.006Z,0.44
2018-02-24T01:00:34.008Z,0.46
2018-02-24T01:01:34.056Z,0.44
2018-02-24T01:02:34.067Z,0.49
2018-02-24T01:03:34.057Z,0.58
2018-02-24T01:04:34.063Z,0.79
2018-02-24T01:05:34.132Z,0.68
2018-02-24T01:06:34.132Z,0.49
2018-02-24T01:07:34.096Z,0.50
2018-02-24T01:08:34.113Z,0.60
2018-02-24T01:09:34.138Z,0.57
2018-02-24T01:10:34.130Z,0.51
2018-02-24T01:11:35.779Z,0.47
2018-02-24T01:12:34.733Z,0.46
2018-02-24T01:13:34.232Z,0.47
2018-02-24T01:14:34.207Z,0.42
2018-02-24T01:15:34.214Z,0.33
2018-02-24T01:16:34.237Z,0.41
2018-02-24T01:17:34.261Z,0.42
2018-02-24T01:18:34.254Z,0.38
2018-02-24T01:19:34.264Z,0.46
2018-02-24T01:20:34.252Z,0.51
2018-02-24T01:21:34.268Z,0.36
2018-02-24T01:22:34.316Z,0.46
2018-02-24T01:23:34.296Z,0.50
2018-02-24T01:24:34.307Z,0.47
2018-02-24T01:25:34.319Z,0.47
2018-02-24T01:26:34.337Z,0.46
2018-02-24T01:27:34.348Z,0.39
2018-02-24T01:28:34.401Z,0.42
2018-02-24T01:29:34.371Z,0.68
2018-02-24T01:30:34.382Z,0.75
2018-02-24T01:31:34.395Z,0.57
2018-02-24T01:32:34.402Z,0.50
2018-02-24T01:33:34.427Z,0.39
2018-02-24T01:34:34.467Z,0.41
2018-02-24T01:35:34.443Z,0.50
2018-02-24T01:36:34.458Z,0.42
2018-02-24T01:37:34.471Z,0.47
2018-02-24T01:38:34.480Z,0.38
2018-02-24T01:39:34.512Z,0.36
2018-02-24T01:40:34.503Z,0.39
2018-02-24T01:41:34.517Z,0.31
2018-02-24T01:42:34.537Z,0.42
2018-02-24T01:43:34.557Z,0.47
2018-02-24T01:44:34.555Z,0.44
2018-02-24T01:45:34.590Z,0.66
2018-02-24T01:46:34.581Z,0.46
2018-02-24T01:47:34.592Z,0.42
2018-02-24T01:48:34.623Z,0.50
2018-02-24T01:49:34.613Z,0.44
2018-02-24T01:50:34.645Z,0.73
2018-02-24T01:51:34.641Z,0.75
2018-02-24T01:52:34.656Z,0.72
2018-02-24T01:53:34.685Z,0.65
2018-02-24T01:54:34.734Z,0.53
2018-02-24T01:55:34.696Z,0.61
2018-02-24T01:56:34.701Z,0.57
2018-02-24T01:57:34.749Z,0.76
2018-02-24T01:58:34.728Z,0.76
2018-02-24T01:59:34.766Z,0.78
2018-02-24T02:00:34.753Z,0.68
2018-02-24T02:01:34.765Z,0.62
2018-02-24T02:02:34.789Z,0.55
2018-02-24T02:03:34.807Z,0.91
2018-02-24T02:04:34.805Z,0.76
2018-02-24T02:05:34.817Z,0.57
2018-02-24T02:06:34.830Z,0.57
2018-02-24T02:07:34.843Z,0.53
2018-02-24T02:08:34.881Z,0.44
2018-02-24T02:09:34.867Z,0.36
2018-02-24T02:10:34.876Z,0.39
2018-02-24T02:11:34.891Z,0.46
2018-02-24T02:12:34.901Z,0.44
2018-02-24T02:13:34.929Z,0.31
2018-02-24T02:14:34.925Z,0.42
2018-02-24T02:15:34.962Z,0.42
2018-02-24T02:16:34.944Z,0.35
2018-02-24T02:17:34.964Z,0.33
2018-02-24T02:18:35.736Z,0.35
2018-02-24T02:19:34.989Z,0.57
2018-02-24T02:20:35.055Z,0.62
2018-02-24T02:21:35.016Z,0.44
2018-02-24T02:22:35.057Z,0.47
2018-02-24T02:23:35.037Z,0.42
2018-02-24T02:24:35.048Z,0.38
2018-02-24T02:25:35.067Z,0.26
2018-02-24T02:26:35.079Z,0.33
2018-02-24T02:27:35.108Z,0.21
2018-02-24T02:28:35.118Z,0.26
2018-02-24T02:29:35.121Z,0.41
2018-02-24T02:30:35.128Z,0.61
2018-02-24T02:31:35.145Z,0.47
2018-02-24T02:32:35.148Z,0.39
2018-02-24T02:33:35.230Z,0.50
2018-02-24T02:34:35.250Z,0.41
2018-02-24T02:35:35.185Z,0.31
2018-02-24T02:36:35.201Z,0.39
2018-02-24T02:37:35.234Z,0.44
2018-02-24T02:38:35.236Z,0.70
2018-02-24T02:39:35.268Z,0.55
2018-02-24T02:40:35.253Z,0.36
2018-02-24T02:41:35.271Z,0.24
2018-02-24T02:42:35.298Z,0.31
2018-02-24T02:43:35.289Z,0.39
2018-02-24T02:44:35.301Z,0.58
2018-02-24T02:45:35.348Z,0.58
2018-02-24T02:46:35.323Z,0.55
2018-02-24T02:47:35.345Z,0.53
2018-02-24T02:48:35.345Z,0.79
2018-02-24T02:49:35.369Z,0.75
2018-02-24T02:50:35.394Z,0.58
2018-02-24T02:51:35.390Z,0.80
2018-02-24T02:52:35.398Z,0.88
2018-02-24T02:53:35.409Z,0.66
2018-02-24T02:54:35.424Z,0.68
2018-02-24T02:55:35.473Z,0.78
2018-02-24T02:56:35.448Z,0.66
2018-02-24T02:57:35.459Z,0.75
2018-02-24T02:58:35.471Z,0.53
2018-02-24T02:59:35.483Z,0.60
2018-02-24T03:00:35.536Z,0.65
2018-02-24T03:01:35.509Z,0.68
2018-02-24T03:02:35.519Z,0.61
2018-02-24T03:03:35.535Z,0.62
2018-02-24T03:04:35.543Z,0.62
2018-02-24T03:05:35.582Z,0.78
2018-02-24T03:06:35.576Z,0.70
2018-02-24T03:07:35.587Z,0.83
2018-02-24T03:08:35.599Z,0.88
2018-02-24T03:09:35.612Z,0.91
2018-02-24T03:10:35.630Z,0.83
2018-02-24T03:11:35.666Z,0.70
2018-02-24T03:12:35.648Z,0.76
2018-02-24T03:13:35.668Z,0.78
2018-02-24T03:14:35.671Z,0.53
2018-02-24T03:15:35.683Z,0.87
2018-02-24T03:16:35.700Z,0.68
2018-02-24T03:17:35.737Z,0.41
2018-02-24T03:18:35.716Z,0.35
2018-02-24T03:19:35.732Z,0.33
2018-02-24T03:20:35.743Z,0.38
2018-02-24T03:21:35.757Z,0.47
2018-02-24T03:22:35.777Z,0.47
2018-02-24T03:23:35.825Z,0.42
2018-02-24T03:24:35.798Z,0.50
2018-02-24T03:25:35.803Z,0.31
2018-02-24T03:26:35.816Z,0.46
2018-02-24T03:27:35.829Z,0.35
2018-02-24T03:28:35.871Z,0.31
2018-02-24T03:29:35.866Z,0.24
2018-02-24T03:30:35.869Z,0.33
2018-02-24T03:31:35.877Z,0.42
2018-02-24T03:32:35.890Z,0.39
2018-02-24T03:33:35.914Z,0.36
2018-02-24T03:34:35.934Z,0.33
2018-02-24T03:35:35.928Z,0.38
2018-02-24T03:36:35.939Z,0.50
2018-02-24T03:37:35.960Z,0.36
2018-02-24T03:38:35.980Z,0.35
2018-02-24T03:39:35.979Z,0.32
2018-02-24T03:40:36.012Z,0.31
2018-02-24T03:41:36.005Z,0.36
2018-02-24T03:42:36.018Z,0.32
2018-02-24T03:43:36.062Z,0.42
2018-02-24T03:44:36.038Z,0.42
2018-02-24T03:45:36.052Z,0.32
2018-02-24T03:46:36.061Z,0.31
2018-02-24T03:47:36.078Z,0.35
2018-02-24T03:48:36.086Z,0.61
2018-02-24T03:49:36.125Z,0.38
2018-02-24T03:50:36.113Z,0.29
2018-02-24T03:51:36.122Z,0.44
2018-02-24T03:52:36.136Z,0.17
2018-02-24T03:53:36.149Z,0.20
2018-02-24T03:54:36.184Z,0.38
2018-02-24T03:55:36.190Z,0.17
2018-02-24T03:56:36.190Z,0.38
2018-02-24T03:57:36.200Z,0.51
2018-02-24T03:58:36.226Z,0.72
2018-02-24T03:59:36.222Z,0.61
2018-02-24T04:00:36.262Z,0.44
2018-02-24T04:01:36.250Z,0.20
2018-02-24T04:02:36.260Z,0.14
2018-02-24T04:03:36.268Z,0.23
2018-02-24T04:04:36.287Z,0.46
2018-02-24T04:05:36.316Z,0.21
2018-02-24T04:06:36.310Z,0.38
2018-02-24T04:07:36.317Z,0.31
2018-02-24T04:08:36.335Z,0.21
2018-02-24T04:09:36.344Z,0.13
2018-02-24T04:10:36.392Z,0.20
2018-02-24T04:11:36.367Z,0.39
2018-02-24T04:12:36.383Z,0.23
2018-02-24T04:13:36.392Z,0.39
2018-02-24T04:14:36.411Z,0.29
2018-02-24T04:15:36.441Z,0.20
2018-02-24T04:16:36.436Z,0.20
2018-02-24T04:17:36.441Z,0.31
2018-02-24T04:18:36.458Z,0.20
2018-02-24T04:19:36.505Z,-0.01
2018-02-24T04:20:36.477Z,0.18
2018-02-24T04:21:36.515Z,-0.01
2018-02-24T04:22:36.518Z,-0.01
2018-02-24T04:23:36.531Z,0.10
2018-02-24T04:24:36.541Z,0.13
2018-02-24T04:25:36.565Z,0.00
2018-02-24T04:26:36.550Z,0.07
2018-02-24T04:27:36.569Z,-0.08
2018-02-24T04:28:36.579Z,-0.22
2018-02-24T04:29:36.600Z,0.15
2018-02-24T04:30:36.624Z,0.13
2018-02-24T04:31:36.618Z,0.13
2018-02-24T04:32:36.630Z,-0.03
2018-02-24T04:33:36.644Z,-0.16
2018-02-24T04:34:36.665Z,-0.22
2018-02-24T04:35:36.706Z,-0.26
2018-02-24T04:36:36.682Z,0.03
2018-02-24T04:37:36.689Z,0.31
2018-02-24T04:38:36.701Z,0.36
2018-02-24T04:39:36.714Z,0.23
2018-02-24T04:40:36.773Z,-0.08
2018-02-24T04:41:36.739Z,0.13
2018-02-24T04:42:36.754Z,-0.07
2018-02-24T04:43:36.774Z,0.08
2018-02-24T04:44:36.778Z,0.03
2018-02-24T04:45:36.794Z,-0.14
2018-02-24T04:46:36.833Z,-0.08
2018-02-24T04:47:36.813Z,-0.15
2018-02-24T04:48:36.829Z,0.03
2018-02-24T04:49:36.840Z,-0.05
2018-02-24T04:50:36.851Z,-0.21
2018-02-24T04:51:36.893Z,-0.14
2018-02-24T04:52:36.876Z,0.03
2018-02-24T04:53:36.884Z,-0.10
2018-02-24T04:54:36.904Z,0.14
2018-02-24T04:55:36.906Z,0.11
2018-02-24T04:56:36.956Z,0.18
2018-02-24T04:57:36.938Z,-0.16
2018-02-24T04:58:36.951Z,-0.26
2018-02-24T04:59:36.962Z,-0.31
2018-02-24T05:00:36.968Z,0.03
2018-02-24T05:01:36.985Z,0.10
2018-02-24T05:02:37.029Z,0.17
2018-02-24T05:03:37.010Z,0.26
2018-02-24T05:04:37.016Z,0.20
2018-02-24T05:05:37.032Z,0.07
2018-02-24T05:06:37.038Z,-0.04
2018-02-24T05:07:37.065Z,-0.14
2018-02-24T05:08:37.107Z,-0.28
2018-02-24T05:09:37.124Z,-0.21
2018-02-24T05:10:37.094Z,-0.07
2018-02-24T05:11:37.104Z,-0.14
2018-02-24T05:12:37.117Z,-0.07
2018-02-24T05:13:37.131Z,0.20
2018-02-24T05:14:37.147Z,0.04
2018-02-24T05:15:37.179Z,-0.16
2018-02-24T05:16:37.167Z,-0.16
2018-02-24T05:17:37.183Z,-0.16
2018-02-24T05:18:37.209Z,-0.01
2018-02-24T05:19:37.205Z,-0.18
2018-02-24T05:20:37.213Z,-0.21
2018-02-24T05:21:37.244Z,-0.07
2018-02-24T05:22:37.242Z,-0.04
2018-02-24T05:23:37.278Z,-0.14
2018-02-24T05:24:37.260Z,-0.28
2018-02-24T05:25:37.274Z,-0.10
2018-02-24T05:26:37.291Z,-0.11
2018-02-24T05:27:37.307Z,-0.14
2018-02-24T05:28:37.345Z,-0.42
2018-02-24T05:29:37.323Z,-0.33
2018-02-24T05:30:37.339Z,-0.46
2018-02-24T05:31:37.353Z,-0.29
2018-02-24T05:32:37.377Z,-0.33
2018-02-24T05:33:38.273Z,-0.40
2018-02-24T05:34:37.421Z,-0.49
2018-02-24T05:35:37.400Z,-0.31
2018-02-24T05:36:37.412Z,-0.21
2018-02-24T05:37:37.427Z,-0.16
2018-02-24T05:38:37.456Z,-0.10
2018-02-24T05:39:37.449Z,-0.36
2018-02-24T05:40:37.468Z,-0.36
2018-02-24T05:41:37.474Z,-0.34
2018-02-24T05:42:37.487Z,-0.36
2018-02-24T05:43:37.515Z,-0.39
2018-02-24T05:44:37.514Z,-0.37
2018-02-24T05:45:37.559Z,-0.39
2018-02-24T05:46:37.645Z,-0.26
2018-02-24T05:47:37.547Z,0.03
2018-02-24T05:48:37.556Z,0.21
2018-02-24T05:49:37.566Z,0.31
2018-02-24T05:50:37.614Z,0.20
2018-02-24T05:51:37.595Z,0.13
2018-02-24T05:52:37.610Z,-0.05
2018-02-24T05:53:37.618Z,-0.37
2018-02-24T05:54:37.628Z,-0.22
2018-02-24T05:55:37.688Z,-0.39
2018-02-24T05:56:37.834Z,-0.40
2018-02-24T05:57:38.320Z,-0.33
2018-02-24T05:58:39.343Z,-0.37
2018-02-24T05:59:37.706Z,-0.18
2018-02-24T06:00:37.708Z,-0.28
2018-02-24T06:01:38.255Z,-0.31
2018-02-24T06:02:37.727Z,-0.28
2018-02-24T06:03:37.741Z,-0.21
2018-02-24T06:04:37.773Z,-0.42
2018-02-24T06:05:38.282Z,-0.23
2018-02-24T06:06:37.800Z,-0.18
2018-02-24T06:07:57.447Z,-0.07
2018-02-24T06:08:37.866Z,-0.11
2018-02-24T06:09:37.859Z,-0.19
2018-02-24T06:10:37.824Z,-0.42
2018-02-24T06:11:38.378Z,-0.25
2018-02-24T06:12:38.829Z,-0.16
2018-02-24T06:13:38.826Z,-0.22
2018-02-24T06:14:37.872Z,-0.31
2018-02-24T06:15:37.888Z,-0.39
2018-02-24T06:16:37.916Z,-0.40
2018-02-24T06:17:38.384Z,-0.58
2018-02-24T06:18:37.925Z,-0.43
2018-02-24T06:19:38.823Z,-0.34
2018-02-24T06:20:38.000Z,-0.55
2018-02-24T06:21:40.829Z,-0.25
2018-02-24T06:22:37.967Z,-0.19
2018-02-24T06:23:38.018Z,-0.28
2018-02-24T06:24:37.998Z,-0.26
2018-02-24T06:25:38.006Z,-0.22
2018-02-24T06:26:38.017Z,-0.34
2018-02-24T06:27:38.034Z,-0.31
2018-02-24T06:28:38.052Z,-0.19
2018-02-24T06:29:38.100Z,-0.39
2018-02-24T06:30:38.070Z,-0.34
2018-02-24T06:31:38.080Z,-0.26
2018-02-24T06:32:38.092Z,-0.28
2018-02-24T06:33:38.118Z,-0.23
2018-02-24T06:34:39.971Z,-0.36
2018-02-24T06:35:38.132Z,-0.52
2018-02-24T06:36:38.175Z,-0.49
2018-02-24T06:37:38.156Z,-0.42
2018-02-24T06:38:38.168Z,-0.39
2018-02-24T06:39:38.196Z,-0.11
2018-02-24T06:40:38.187Z,-0.15
2018-02-24T06:41:38.229Z,-0.37
2018-02-24T06:42:38.217Z,-0.43
2018-02-24T06:43:38.227Z,-0.36
2018-02-24T06:44:38.246Z,-0.29
2018-02-24T06:45:38.253Z,-0.49
2018-02-24T06:46:38.300Z,-0.34
2018-02-24T06:47:38.278Z,-0.37
2018-02-24T06:48:38.286Z,-0.43
2018-02-24T06:49:38.300Z,-0.40
2018-02-24T06:50:38.312Z,-0.43
2018-02-24T06:51:38.329Z,-0.42
2018-02-24T06:52:38.404Z,-0.43
2018-02-24T06:53:38.348Z,-0.36
2018-02-24T06:54:38.380Z,-0.54
2018-02-24T06:55:38.378Z,-0.57
2018-02-24T06:56:38.382Z,-0.52
2018-02-24T06:57:38.421Z,-0.55
2018-02-24T06:58:38.408Z,-0.37
2018-02-24T06:59:38.423Z,-0.55
2018-02-24T07:00:38.433Z,-0.44
2018-02-24T07:01:38.442Z,-0.64
2018-02-24T07:02:38.473Z,-0.51
2018-02-24T07:03:38.470Z,-0.62
2018-02-24T07:04:38.480Z,-0.49
2018-02-24T07:05:38.522Z,-0.26
2018-02-24T07:06:38.508Z,-0.39
2018-02-24T07:07:38.516Z,-0.61
2018-02-24T07:08:38.532Z,-0.46
2018-02-24T07:09:38.542Z,-0.52
2018-02-24T07:10:38.574Z,-0.37
2018-02-24T07:11:38.568Z,-0.40
2018-02-24T07:12:38.577Z,-0.42
2018-02-24T07:13:38.589Z,-0.40
2018-02-24T07:14:38.607Z,-0.39
2018-02-24T07:15:38.642Z,-0.08
2018-02-24T07:16:38.628Z,-0.07
2018-02-24T07:17:38.645Z,0.13
2018-02-24T07:18:38.652Z,0.07
2018-02-24T07:19:38.677Z,0.21
2018-02-24T07:20:38.700Z,0.53
2018-02-24T07:21:38.689Z,0.62
2018-02-24T07:22:38.701Z,0.02
2018-02-24T07:23:38.714Z,0.08
2018-02-24T07:24:38.728Z,0.23
2018-02-24T07:25:38.766Z,-0.14
2018-02-24T07:26:38.753Z,-0.31
2018-02-24T07:27:38.759Z,-0.14
2018-02-24T07:28:38.772Z,-0.22
2018-02-24T07:29:38.789Z,-0.25
2018-02-24T07:30:38.824Z,-0.15
2018-02-24T07:31:38.815Z,-0.01
2018-02-24T07:32:38.823Z,0.10
2018-02-24T07:33:38.856Z,0.02
2018-02-24T07:34:38.848Z,-0.28
2018-02-24T07:35:39.850Z,-0.28
2018-02-24T07:36:38.872Z,-0.51
2018-02-24T07:37:38.887Z,-0.65
2018-02-24T07:38:38.954Z,-0.55
2018-02-24T07:39:38.947Z,-0.36
2018-02-24T07:40:38.953Z,-0.47
2018-02-24T07:41:39.848Z,-0.54
2018-02-24T07:42:38.946Z,-0.58
2018-02-24T07:43:38.961Z,-0.37
2018-02-24T07:44:39.848Z,-0.29
2018-02-24T07:45:39.023Z,-0.51
2018-02-24T07:46:38.991Z,-0.51
2018-02-24T07:53:22.605Z,-0.22
2018-02-24T07:54:23.612Z,-0.36
2018-02-24T07:55:22.590Z,-0.46
2018-02-24T07:56:22.619Z,-0.22
2018-02-24T07:57:22.623Z,-0.36
2018-02-24T07:58:22.683Z,-0.25
2018-02-24T07:59:22.655Z,0.02
2018-02-24T08:00:22.688Z,-0.07
2018-02-24T08:01:22.665Z,0.13
2018-02-24T08:02:22.675Z,-0.23
2018-02-24T08:03:22.708Z,-0.07
2018-02-24T08:04:22.725Z,0.11
2018-02-24T08:05:22.713Z,0.17
2018-02-24T08:06:22.787Z,-0.14
2018-02-24T08:07:22.740Z,-0.15
2018-02-24T08:08:22.765Z,-0.39
2018-02-24T08:09:22.804Z,-0.43
2018-02-24T08:10:23.871Z,-0.31
2018-02-24T08:15:31.666Z,-0.22
2018-02-24T08:15:56.265Z,-0.28
2018-02-24T08:16:56.296Z,-0.07
2018-02-24T08:17:56.209Z,0.24
2018-02-24T08:18:55.278Z,0.17
2018-02-24T08:19:55.349Z,0.08
2018-02-24T08:21:22.898Z,-0.16
2018-02-24T08:21:56.299Z,-0.08
2018-02-24T08:22:55.319Z,-0.08
2018-02-24T08:23:55.353Z,-0.10
2018-02-24T08:24:55.360Z,-0.16
2018-02-24T08:25:55.358Z,-0.26
2018-02-24T08:29:02.613Z,0.02
2018-02-24T08:30:50.232Z,0.02
2018-02-24T08:30:59.161Z,0.11
2018-02-24T08:31:59.803Z,0.38
2018-02-24T08:32:59.124Z,0.33
2018-02-24T08:33:59.182Z,0.20
2018-02-24T08:34:59.256Z,0.15
2018-02-24T08:35:59.202Z,0.03
2018-02-24T08:36:59.186Z,0.10
2018-02-24T08:37:59.202Z,0.29
2018-02-24T08:39:00.165Z,0.51
2018-02-24T08:39:59.248Z,0.57
2018-02-24T08:40:59.310Z,0.31
2018-02-24T08:41:59.256Z,0.41
2018-02-24T08:42:59.248Z,0.10
2018-02-24T08:43:59.339Z,0.18
2018-02-24T08:44:59.320Z,0.41
2018-02-24T08:45:59.285Z,0.18
2018-02-24T08:46:59.306Z,0.21
2018-02-24T08:47:59.319Z,0.13
2018-02-24T08:48:59.362Z,0.38
2018-02-24T08:49:59.351Z,0.29
2018-02-24T08:50:59.363Z,0.13
2018-02-24T08:51:59.392Z,0.08
2018-02-24T08:52:59.394Z,0.02
2018-02-24T08:53:59.422Z,0.20
2018-02-24T08:54:59.425Z,0.17
2018-02-24T08:55:59.423Z,0.50
2018-02-24T08:56:59.435Z,0.46
2018-02-24T08:57:59.469Z,0.33
2018-02-24T08:58:59.465Z,0.24
2018-02-24T08:59:59.481Z,0.10
2018-02-24T09:00:59.504Z,0.32
2018-02-24T09:02:01.184Z,0.35
2018-02-24T09:02:59.564Z,0.11
2018-02-24T09:03:59.523Z,0.20
2018-02-24T09:05:00.191Z,0.20
2018-02-24T09:06:00.217Z,0.38
2018-02-24T09:06:59.541Z,0.41
2018-02-24T09:07:59.594Z,0.53
2018-02-24T09:08:59.574Z,0.35
2018-02-24T09:09:59.605Z,0.29
2018-02-24T09:10:59.592Z,0.36
2018-02-24T09:11:59.605Z,0.61
2018-02-24T09:13:01.248Z,0.44
2018-02-24T09:13:59.643Z,0.31
2018-02-24T09:14:59.698Z,0.20
2018-02-24T09:15:59.659Z,0.57
2018-02-24T09:16:59.693Z,0.50
2018-02-24T09:17:59.714Z,0.35
2018-02-24T09:18:59.688Z,0.11
2018-02-24T09:19:59.715Z,0.03
2018-02-24T09:20:59.744Z,0.23
2018-02-24T09:22:00.678Z,0.24
2018-02-24T09:22:59.780Z,0.07
2018-02-24T09:23:59.783Z,0.20
2018-02-24T09:24:59.804Z,0.28
2018-02-24T09:25:59.972Z,-0.01
2018-02-24T09:26:59.787Z,-0.04
2018-02-24T09:28:00.696Z,-0.01
2018-02-24T09:28:59.876Z,-0.04
2018-02-24T09:29:59.835Z,0.08
2018-02-24T09:30:59.900Z,0.04
2018-02-24T09:31:59.869Z,0.04
2018-02-24T09:33:02.322Z,0.10
2018-02-24T09:33:59.888Z,0.18
2018-02-24T09:35:00.170Z,0.13
2018-02-24T09:35:59.993Z,0.32
2018-02-24T09:36:59.973Z,0.14
2018-02-24T09:37:59.941Z,0.00
2018-02-24T09:39:00.706Z,0.08
2018-02-24T09:40:00.026Z,0.10
2018-02-24T09:41:00.247Z,0.23
2018-02-24T09:47:14.623Z,0.10
2018-02-24T09:48:15.381Z,0.24
2018-02-24T09:49:14.490Z,0.29
2018-02-24T09:50:14.587Z,0.21
2018-02-24T09:51:14.518Z,0.23
2018-02-24T09:52:14.536Z,0.18
2018-02-24T09:53:14.589Z,0.13
2018-02-24T09:54:14.613Z,0.07
2018-02-24T09:55:14.597Z,0.97
2018-02-24T09:56:15.399Z,0.88
2018-02-24T09:57:14.591Z,0.87
2018-02-24T09:58:14.621Z,0.90
2018-02-24T09:59:14.603Z,0.75
2018-02-24T10:00:14.681Z,0.61
2018-02-24T10:01:14.625Z,0.47
2018-02-24T10:02:14.634Z,0.33
2018-02-24T10:03:14.649Z,0.50
2018-02-24T10:04:14.657Z,0.41
2018-02-24T10:05:14.698Z,0.50
2018-02-24T10:06:14.689Z,0.36
2018-02-24T10:07:14.696Z,0.38
2018-02-24T10:08:14.708Z,0.49
2018-02-24T10:09:14.719Z,0.49
2018-02-24T10:10:14.988Z,0.62
2018-02-24T10:11:14.743Z,0.46
2018-02-24T10:12:14.801Z,0.50
2018-02-24T10:13:14.773Z,0.83
2018-02-24T10:14:14.825Z,0.91
2018-02-24T10:15:14.793Z,0.90
2018-02-24T10:16:14.814Z,0.73
2018-02-24T10:17:15.038Z,0.55
2018-02-24T10:18:14.853Z,0.79
2018-02-24T10:19:14.848Z,0.62
2018-02-24T10:20:14.852Z,0.60
2018-02-24T10:21:14.870Z,0.47
2018-02-24T10:22:14.885Z,0.72
2018-02-24T10:23:14.928Z,0.66
2018-02-24T10:24:14.903Z,0.50
2018-02-24T10:25:14.918Z,0.78
2018-02-24T10:26:14.929Z,0.88
2018-02-24T10:27:14.941Z,0.60
2018-02-24T10:28:14.958Z,0.90
2018-02-24T10:29:14.982Z,0.69
2018-02-24T10:30:14.979Z,0.53
2018-02-24T10:31:14.988Z,0.57
2018-02-24T10:32:15.013Z,0.94
2018-02-24T10:33:15.049Z,0.79
2018-02-24T10:34:15.024Z,0.87
2018-02-24T10:35:15.040Z,0.72
2018-02-24T10:36:15.052Z,0.83
2018-02-24T10:37:15.067Z,0.96
2018-02-24T10:38:15.092Z,0.91
2018-02-24T10:39:15.092Z,0.80
2018-02-24T10:40:15.104Z,0.91
2018-02-24T10:41:15.136Z,0.70
2018-02-24T10:42:15.125Z,0.80
2018-02-24T10:43:15.137Z,1.02
2018-02-24T10:44:15.147Z,0.91
2018-02-24T10:45:15.170Z,0.86
2018-02-24T10:46:15.197Z,0.51
2018-02-24T10:47:15.191Z,0.73
2018-02-24T10:48:15.198Z,0.58
2018-02-24T10:49:15.213Z,0.58
2018-02-24T10:50:15.226Z,0.79
2018-02-24T10:51:15.275Z,0.69
2018-02-24T10:52:15.255Z,0.73
2018-02-24T10:53:15.266Z,1.15
2018-02-24T10:54:15.274Z,1.23
2018-02-24T10:55:15.287Z,0.94
2018-02-24T10:56:15.301Z,1.11
2018-02-24T10:57:15.335Z,1.69
2018-02-24T10:58:15.354Z,1.69
2018-02-24T10:59:15.332Z,1.50
2018-02-24T11:00:15.351Z,1.09
2018-02-24T11:01:15.364Z,1.08
2018-02-24T11:02:15.371Z,0.98
2018-02-24T11:03:15.419Z,0.78
2018-02-24T11:04:15.394Z,0.75
2018-02-24T11:05:15.411Z,0.94
2018-02-24T11:06:15.428Z,1.42
2018-02-24T11:07:15.434Z,1.59
2018-02-24T11:08:15.456Z,1.69
2018-02-24T11:09:15.476Z,1.44
2018-02-24T11:10:15.471Z,1.22
2018-02-24T11:11:15.485Z,1.11
2018-02-24T11:12:15.498Z,1.06
2018-02-24T11:13:15.540Z,1.06
2018-02-24T11:14:15.522Z,1.04
2018-02-24T11:15:15.553Z,1.16
2018-02-24T11:16:15.551Z,1.09
2018-02-24T11:17:15.576Z,1.14
2018-02-24T11:18:15.577Z,1.15
2018-02-24T11:19:15.588Z,1.27
2018-02-24T11:20:15.597Z,1.22
2018-02-24T11:21:15.610Z,1.59
2018-02-24T11:22:15.640Z,1.48
2018-02-24T11:23:15.633Z,1.37
2018-02-24T11:24:15.660Z,1.18
2018-02-24T11:25:15.694Z,1.04
2018-02-24T11:26:15.676Z,1.22
2018-02-24T11:27:15.690Z,1.18
2018-02-24T11:28:15.695Z,0.98
2018-02-24T11:29:15.712Z,1.18
2018-02-24T11:30:15.742Z,1.27
2018-02-24T11:31:15.751Z,1.22
2018-02-24T11:32:15.746Z,1.27
2018-02-24T11:33:15.756Z,1.12
2018-02-24T11:34:15.773Z,1.05
2018-02-24T11:35:15.824Z,1.52
2018-02-24T11:36:15.846Z,1.41
2018-02-24T11:37:15.807Z,1.50
2018-02-24T11:38:15.865Z,1.42
2018-02-24T11:39:15.844Z,1.36
2018-02-24T11:40:15.850Z,1.33
2018-02-24T11:41:15.868Z,1.47
2018-02-24T11:42:15.882Z,1.51
2018-02-24T11:43:15.915Z,1.51
2018-02-24T11:44:15.901Z,1.54
2018-02-24T11:45:15.910Z,1.70
2018-02-24T11:46:15.921Z,1.51
2018-02-24T11:47:15.935Z,1.63
2018-02-24T11:48:16.061Z,1.59
2018-02-24T11:49:15.956Z,1.36
2018-02-24T11:50:16.003Z,1.24
2018-02-24T11:51:15.985Z,1.52
2018-02-24T11:52:16.001Z,1.59
2018-02-24T11:53:16.048Z,1.70
2018-02-24T11:54:16.020Z,1.73
2018-02-24T11:55:16.037Z,1.93
2018-02-24T11:56:16.047Z,1.69
2018-02-24T11:57:16.062Z,1.55
2018-02-24T11:58:16.093Z,1.81
2018-02-24T11:59:16.080Z,1.72
2018-02-24T12:00:16.100Z,1.70
2018-02-24T12:01:16.123Z,1.66
2018-02-24T12:02:16.152Z,1.88
2018-02-24T12:03:16.133Z,1.72
2018-02-24T12:04:16.151Z,1.58
2018-02-24T12:05:16.160Z,1.76
2018-02-24T12:06:16.170Z,2.02
2018-02-24T12:07:16.220Z,1.83
2018-02-24T12:08:16.198Z,1.90
2018-02-24T12:09:16.212Z,1.80
2018-02-24T12:10:16.261Z,1.73
2018-02-24T12:11:16.235Z,1.55
2018-02-24T12:12:16.241Z,1.72
2018-02-24T12:13:16.279Z,1.58
2018-02-24T12:14:16.273Z,1.55
2018-02-24T12:15:16.283Z,1.70
2018-02-24T12:16:16.292Z,1.81
2018-02-24T12:17:16.314Z,1.83
2018-02-24T12:18:16.359Z,1.55
2018-02-24T12:19:16.362Z,1.90
2018-02-24T12:20:16.349Z,1.72
2018-02-24T12:21:16.354Z,1.37
2018-02-24T12:22:16.370Z,1.59
2018-02-24T12:23:16.399Z,1.70
2018-02-24T12:24:16.396Z,1.77
2018-02-24T12:25:16.410Z,1.70
2018-02-24T12:26:16.434Z,1.86
2018-02-24T12:27:16.436Z,2.02
2018-02-24T12:28:16.471Z,2.43
2018-02-24T12:29:16.459Z,2.60
2018-02-24T12:30:16.510Z,2.07
2018-02-24T12:31:16.488Z,1.87
2018-02-24T12:32:16.498Z,1.76
2018-02-24T12:33:16.507Z,1.76
2018-02-24T12:34:16.524Z,1.87
2018-02-24T12:35:16.547Z,1.79
2018-02-24T12:36:16.571Z,2.10
2018-02-24T12:37:16.556Z,1.72
2018-02-24T12:38:16.587Z,1.65
2018-02-24T12:39:16.595Z,1.60
2018-02-24T12:40:16.602Z,1.81
2018-02-24T12:41:16.645Z,1.95
2018-02-24T12:42:16.620Z,1.83
2018-02-24T12:43:16.641Z,1.83
2018-02-24T12:44:16.640Z,1.90
2018-02-24T12:45:16.660Z,2.12
2018-02-24T12:46:16.680Z,2.28
2018-02-24T12:47:16.719Z,2.02
2018-02-24T12:48:16.720Z,2.06
2018-02-24T12:49:16.726Z,2.23
2018-02-24T12:50:16.727Z,2.31
2018-02-24T12:51:16.732Z,1.90
2018-02-24T12:52:16.746Z,1.87
2018-02-24T12:53:16.800Z,1.77
2018-02-24T12:54:16.769Z,1.83
2018-02-24T12:55:16.781Z,1.81
2018-02-24T12:56:16.798Z,1.86
2018-02-24T12:57:16.809Z,2.23
2018-02-24T12:58:16.859Z,2.18
2018-02-24T12:59:16.838Z,2.20
2018-02-24T13:00:16.855Z,2.28
2018-02-24T13:01:16.884Z,2.38
2018-02-24T13:02:16.872Z,2.43
2018-02-24T13:03:16.915Z,2.74
2018-02-24T13:04:16.924Z,2.69
2018-02-24T13:05:16.975Z,2.23
2018-02-24T13:06:16.944Z,2.02
2018-02-24T13:07:16.934Z,2.20
2018-02-24T13:08:16.954Z,2.21
2018-02-24T13:09:16.960Z,2.56
2018-02-24T13:10:16.977Z,2.27
2018-02-24T13:11:17.007Z,2.35
2018-02-24T13:12:17.007Z,2.18
2018-02-24T13:13:17.035Z,2.05
2018-02-24T13:14:17.066Z,2.12
2018-02-24T13:15:17.052Z,1.88
2018-02-24T13:16:17.051Z,2.18
2018-02-24T13:17:17.057Z,1.99
2018-02-24T13:18:17.071Z,1.76
2018-02-24T13:19:17.122Z,1.88
2018-02-24T13:20:17.112Z,2.03
2018-02-24T13:21:17.114Z,2.10
2018-02-24T13:22:17.156Z,1.84
2018-02-24T13:23:17.139Z,1.76
2018-02-24T13:24:17.176Z,1.73
2018-02-24T13:25:17.198Z,1.91
2018-02-24T13:26:17.177Z,1.86
2018-02-24T13:27:17.183Z,1.77
2018-02-24T13:28:17.203Z,1.79
2018-02-24T13:29:17.246Z,1.91
2018-02-24T13:30:17.222Z,2.12
2018-02-24T13:31:17.243Z,2.12
2018-02-24T13:32:17.249Z,2.30
2018-02-24T13:33:17.262Z,1.98
2018-02-24T13:34:17.294Z,1.95
2018-02-24T13:35:17.461Z,1.91
2018-02-24T13:36:17.308Z,1.91
2018-02-24T13:37:17.964Z,1.98